M I D A S
Marine Information and Data Acquisition System
Tripno 849 of the Zeeleeuw from 2005-02-21 08:20:01 to 2005-02-22 10:23:57
Back to CruiseResearch ActivitiesStationsMapUnderway DataData graphs

EquipmentUnitsComments
TimeDGPSUTC
LatitudeDGPSDM.mWGS84
LongitudeDGPSDM.mWGS84
SpeedMeteo Stationm/sRelative wind speed
DirectionMeteo StationdegRelative wind direction
TemperatureMeteo Stationdeg CelciusAir temperature
PressureMeteo StationPaAtmospheric pressure
HumidityMeteo Station%Relative humidity
Missing or incorrect values are displayed as -999
Metereological data collected by the RV Zeeleeuw from 2005-02-21 08:19:41 to 2005-02-22 10:35:33
                                                                                    Next 1000 lines
Time Latitude Longitude Speed Direction Temperature Pressure Humidity
2005-02-21 08:19:50 51°13.597 2°56.096 3.3 325 3.2 100840 75
2005-02-21 08:19:54 51°13.598 2°56.093 4.1 318 3.2 100840 75
2005-02-21 08:20:01 51°13.6 2°56.087 3.6 311 3.2 100840 75
2005-02-21 08:20:06 51°13.601 2°56.081 5 308 3.2 100840 75
2005-02-21 08:20:11 51°13.603 2°56.075 4.2 292 3.2 100840 75
2005-02-21 08:20:16 51°13.605 2°56.069 3 292 3.2 100840 75
2005-02-21 08:20:21 51°13.607 2°56.064 4 309 3.2 100840 75
2005-02-21 08:20:26 51°13.61 2°56.057 3.5 284 3.2 100840 75
2005-02-21 08:20:30 51°13.612 2°56.051 3 284 3.2 100840 75
2005-02-21 08:20:36 51°13.615 2°56.042 3.2 300 3.2 100840 75
2005-02-21 08:20:41 51°13.617 2°56.035 3.8 306 3.2 100840 75
2005-02-21 08:20:46 51°13.62 2°56.027 4.1 40 3.1 100840 75
2005-02-21 08:20:51 51°13.623 2°56.019 4.3 316 3.1 100840 75
2005-02-21 08:20:56 51°13.626 2°56.01 4 306 3.1 100850 75
2005-02-21 08:21:01 51°13.629 2°56.002 4.3 321 3.1 100850 75
2005-02-21 08:21:05 51°13.631 2°55.995 2.2 312 3.1 100850 75
2005-02-21 08:21:11 51°13.634 2°55.983 2.3 228 3.1 100850 75
2005-02-21 08:21:16 51°13.637 2°55.973 2.2 317 3.1 100840 75
2005-02-21 08:21:21 51°13.64 2°55.963 2.1 265 3.1 100840 75
2005-02-21 08:21:26 51°13.643 2°55.953 2.2 239 3.1 100840 75
2005-02-21 08:21:31 51°13.647 2°55.942 3.1 282 3.1 100840 75
2005-02-21 08:21:36 51°13.65 2°55.932 2.6 288 3.1 100840 76
2005-02-21 08:21:41 51°13.654 2°55.922 3 312 3.1 100840 76
2005-02-21 08:21:45 51°13.657 2°55.913 4.5 302 3.1 100840 76
2005-02-21 08:21:51 51°13.662 2°55.901 4.6 301 3.1 100840 76
2005-02-21 08:21:56 51°13.666 2°55.889 3 289 3.1 100840 76
2005-02-21 08:22:01 51°13.671 2°55.878 2 292 3.1 100840 76
2005-02-21 08:22:06 51°13.675 2°55.868 2.7 271 3.1 100850 76
2005-02-21 08:22:10 51°13.679 2°55.859 1.9 252 3.1 100850 76
2005-02-21 08:22:16 51°13.684 2°55.846 2.9 263 3.1 100840 76
2005-02-21 08:22:21 51°13.689 2°55.836 2.9 242 3.1 100840 76
2005-02-21 08:22:26 51°13.693 2°55.825 4.8 268 3.1 100840 76
2005-02-21 08:22:30 51°13.697 2°55.817 3 264 3.1 100840 76
2005-02-21 08:22:36 51°13.702 2°55.806 4.3 273 3.1 100840 76
2005-02-21 08:22:41 51°13.707 2°55.795 3.5 260 3.1 100840 76
2005-02-21 08:22:46 51°13.711 2°55.786 4 283 3.1 100850 76
2005-02-21 08:22:50 51°13.713 2°55.779 2.5 259 3.1 100850 76
2005-02-21 08:22:55 51°13.717 2°55.77 3.8 281 3 100850 76
2005-02-21 08:23:01 51°13.721 2°55.76 4.6 307 3 100850 76
2005-02-21 08:23:06 51°13.724 2°55.752 2.6 320 3 100850 76
2005-02-21 08:23:10 51°13.727 2°55.744 3.5 294 3 100850 76
2005-02-21 08:23:15 51°13.729 2°55.737 3.5 332 3 100850 76
2005-02-21 08:23:21 51°13.732 2°55.73 3.4 327 3 100850 76
2005-02-21 08:23:25 51°13.733 2°55.725 3.6 324 3 100840 76
2005-02-21 08:23:31 51°13.735 2°55.72 4.2 6 3 100840 76
2005-02-21 08:23:35 51°13.736 2°55.718 2.4 332 3 100850 76
2005-02-21 08:23:41 51°13.737 2°55.716 4.5 347 3 100850 76
2005-02-21 08:23:45 51°13.738 2°55.715 5.6 332 3 100850 77
2005-02-21 08:23:51 51°13.739 2°55.716 4.5 353 3 100850 77
2005-02-21 08:23:55 51°13.74 2°55.717 4.5 15 3 100850 77
2005-02-21 08:24:01 51°13.741 2°55.719 4.1 344 3 100850 77
2005-02-21 08:24:05 51°13.742 2°55.721 4.3 17 3 100850 77
2005-02-21 08:24:10 51°13.744 2°55.723 4.6 9 3 100850 77
2005-02-21 08:24:16 51°13.746 2°55.725 4.2 12 2.9 100850 77
2005-02-21 08:24:21 51°13.747 2°55.726 3.4 54 2.9 100850 77
2005-02-21 08:24:25 51°13.748 2°55.726 2.6 38 2.9 100850 77
2005-02-21 08:24:30 51°13.749 2°55.725 2.1 72 2.9 100850 77
2005-02-21 08:24:35 51°13.75 2°55.723 1.9 98 2.9 100840 77
2005-02-21 08:24:41 51°13.75 2°55.721 2.5 95 2.9 100840 77
2005-02-21 08:24:45 51°13.749 2°55.719 2 44 2.9 100840 77
2005-02-21 08:24:51 51°13.748 2°55.716 1.5 75 2.9 100840 77
2005-02-21 08:24:56 51°13.747 2°55.713 2.4 85 2.9 100840 77
2005-02-21 08:25:01 51°13.745 2°55.709 2.1 90 2.9 100840 77
2005-02-21 08:25:06 51°13.743 2°55.705 1.7 111 2.9 100850 78
2005-02-21 08:25:11 51°13.741 2°55.703 3.3 118 2.9 100850 78
2005-02-21 08:25:16 51°13.74 2°55.7 2.5 105 2.8 100850 78
2005-02-21 08:25:21 51°13.739 2°55.698 2.7 95 2.8 100850 78
2005-02-21 08:25:26 51°13.739 2°55.697 3.2 60 2.8 100850 78
2005-02-21 08:25:30 51°13.74 2°55.696 4.4 79 2.8 100850 78
2005-02-21 08:25:34 51°13.742 2°55.695 4.2 80 2.8 100850 78
2005-02-21 08:25:41 51°13.745 2°55.694 3.2 62 2.8 100850 78
2005-02-21 08:25:45 51°13.748 2°55.693 4.6 88 2.8 100850 78
2005-02-21 08:25:50 51°13.753 2°55.69 5.1 90 2.8 100850 78
2005-02-21 08:25:56 51°13.758 2°55.687 4.1 82 2.8 100840 78
2005-02-21 08:26:01 51°13.763 2°55.684 3.5 106 2.8 100840 78
2005-02-21 08:26:05 51°13.768 2°55.68 2.9 87 2.8 100840 79
2005-02-21 08:26:11 51°13.775 2°55.676 3.1 78 2.8 100840 79
2005-02-21 08:26:16 51°13.781 2°55.671 4.1 80 2.8 100840 79
2005-02-21 08:26:21 51°13.788 2°55.666 3.7 82 2.8 100840 79
2005-02-21 08:26:26 51°13.796 2°55.661 2.6 83 2.8 100840 79
2005-02-21 08:26:31 51°13.804 2°55.656 3 43 2.8 100840 79
2005-02-21 08:26:36 51°13.813 2°55.649 3.4 20 2.7 100850 79
2005-02-21 08:26:41 51°13.821 2°55.644 2.9 31 2.7 100850 79
2005-02-21 08:26:45 51°13.829 2°55.639 3.4 63 2.7 100840 79
2005-02-21 08:26:50 51°13.838 2°55.633 3.8 46 2.7 100840 79
2005-02-21 08:26:55 51°13.847 2°55.626 3.1 26 2.7 100850 79
2005-02-21 08:27:01 51°13.858 2°55.618 3.8 34 2.7 100850 79
2005-02-21 08:27:05 51°13.863 2°55.614 4.7 42 2.7 100850 79
2005-02-21 08:27:10 51°13.877 2°55.605 4.2 68 2.7 100850 79
2005-02-21 08:27:16 51°13.888 2°55.597 4.7 44 2.7 100850 80
2005-02-21 08:27:21 51°13.898 2°55.589 3.7 57 2.7 100850 80
2005-02-21 08:27:25 51°13.906 2°55.583 5.1 62 2.7 100840 80
2005-02-21 08:27:30 51°13.917 2°55.574 5.2 60 2.7 100840 80
2005-02-21 08:27:35 51°13.927 2°55.567 3.5 68 2.6 100840 80
2005-02-21 08:27:41 51°13.939 2°55.557 3.4 78 2.6 100840 80
2005-02-21 08:27:45 51°13.949 2°55.55 4.6 43 2.6 100840 80
2005-02-21 08:27:50 51°13.959 2°55.542 4.9 49 2.6 100840 80
2005-02-21 08:27:55 51°13.97 2°55.534 4.5 45 2.6 100850 80
2005-02-21 08:28:01 51°13.982 2°55.525 5 54 2.6 100850 80
2005-02-21 08:28:05 51°13.99 2°55.519 4.6 58 2.6 100840 81
2005-02-21 08:28:11 51°14.004 2°55.509 4.5 72 2.6 100840 81
2005-02-21 08:28:15 51°14.012 2°55.502 4.5 57 2.6 100840 81
2005-02-21 08:28:21 51°14.025 2°55.493 3.6 52 2.6 100840 81
2005-02-21 08:28:25 51°14.035 2°55.485 3.5 52 2.6 100840 81
2005-02-21 08:28:31 51°14.048 2°55.476 3.3 56 2.6 100840 81
2005-02-21 08:28:35 51°14.058 2°55.468 3.8 48 2.6 100840 81
2005-02-21 08:28:41 51°14.071 2°55.458 4.5 41 2.6 100840 81
2005-02-21 08:28:45 51°14.082 2°55.45 4.3 44 2.5 100840 81
2005-02-21 08:28:50 51°14.094 2°55.441 4.8 53 2.5 100840 81
2005-02-21 08:28:55 51°14.105 2°55.433 4.2 50 2.6 100840 81
2005-02-21 08:29:01 51°14.119 2°55.421 4 47 2.6 100840 81
2005-02-21 08:29:05 51°14.13 2°55.412 4.1 42 2.5 100840 82
2005-02-21 08:29:11 51°14.144 2°55.401 4 53 2.5 100840 82
2005-02-21 08:29:16 51°14.155 2°55.39 4.2 52 2.5 100840 82
2005-02-21 08:29:21 51°14.167 2°55.378 3.8 55 2.5 100840 82
2005-02-21 08:29:25 51°14.178 2°55.366 3.8 67 2.5 100840 82
2005-02-21 08:29:30 51°14.19 2°55.353 3.8 52 2.5 100840 82
2005-02-21 08:29:35 51°14.202 2°55.339 4.3 39 2.5 100840 82
2005-02-21 08:29:41 51°14.214 2°55.323 3.3 47 2.5 100840 82
2005-02-21 08:29:45 51°14.225 2°55.311 4.2 62 2.5 100840 82
2005-02-21 08:29:50 51°14.236 2°55.296 3.7 55 2.5 100840 82
2005-02-21 08:29:55 51°14.246 2°55.281 4.2 51 2.5 100840 82
2005-02-21 08:30:01 51°14.259 2°55.262 4.4 48 2.5 100840 82
2005-02-21 08:30:06 51°14.269 2°55.245 4.5 63 2.5 100840 82
2005-02-21 08:30:10 51°14.278 2°55.229 3 53 2.5 100840 82
2005-02-21 08:30:15 51°14.288 2°55.212 4.5 36 2.5 100840 82
2005-02-21 08:30:21 51°14.299 2°55.19 4.3 41 2.5 100840 82
2005-02-21 08:30:25 51°14.308 2°55.172 4.7 44 2.5 100840 82
2005-02-21 08:30:31 51°14.319 2°55.149 3.5 44 2.5 100840 82
2005-02-21 08:30:35 51°14.327 2°55.133 3.5 52 2.4 100840 82
2005-02-21 08:30:41 51°14.339 2°55.108 4.7 33 2.4 100840 82
2005-02-21 08:30:45 51°14.346 2°55.092 4.4 41 2.4 100850 83
2005-02-21 08:30:51 51°14.358 2°55.067 3.8 55 2.4 100850 83
2005-02-21 08:30:55 51°14.366 2°55.05 3.7 42 2.4 100840 83
2005-02-21 08:31:01 51°14.378 2°55.025 4.2 40 2.4 100840 83
2005-02-21 08:31:05 51°14.388 2°55.008 3.6 45 2.4 100840 83
2005-02-21 08:31:10 51°14.4 2°54.99 5.1 52 2.4 100840 83
2005-02-21 08:31:15 51°14.413 2°54.975 5.8 59 2.4 100840 83
2005-02-21 08:31:21 51°14.43 2°54.958 5 65 2.4 100840 83
2005-02-21 08:31:25 51°14.443 2°54.947 6.5 52 2.5 100840 83
2005-02-21 08:31:30 51°14.459 2°54.935 5.9 56 2.5 100840 83
2005-02-21 08:31:35 51°14.475 2°54.923 6.1 58 2.5 100840 83
2005-02-21 08:31:41 51°14.493 2°54.909 6.6 51 2.5 100840 83
2005-02-21 08:31:46 51°14.509 2°54.899 7.4 56 2.5 100840 84
2005-02-21 08:31:50 51°14.524 2°54.89 7.9 53 2.5 100840 84
2005-02-21 08:31:55 51°14.541 2°54.881 7.1 53 2.5 100830 84
2005-02-21 08:32:01 51°14.56 2°54.872 7.2 51 2.5 100830 84
2005-02-21 08:32:05 51°14.576 2°54.864 7 51 2.5 100830 84
2005-02-21 08:32:10 51°14.592 2°54.857 7.8 50 2.5 100830 84
2005-02-21 08:32:15 51°14.609 2°54.848 6.6 48 2.5 100830 84
2005-02-21 08:32:21 51°14.63 2°54.839 6.8 53 2.5 100830 84
2005-02-21 08:32:25 51°14.645 2°54.832 6.9 52 2.5 100830 84
2005-02-21 08:32:30 51°14.664 2°54.823 6.8 52 2.5 100830 84
2005-02-21 08:32:35 51°14.68 2°54.816 7.4 51 2.5 100830 84
2005-02-21 08:32:41 51°14.701 2°54.806 7 52 2.5 100830 84
2005-02-21 08:32:45 51°14.715 2°54.8 7.9 51 2.5 100830 84
2005-02-21 08:32:51 51°14.737 2°54.789 7.1 57 2.5 100830 84
2005-02-21 08:32:55 51°14.75 2°54.782 7.2 55 2.5 100830 84
2005-02-21 08:33:00 51°14.77 2°54.773 6.8 54 2.5 100830 84
2005-02-21 08:33:05 51°14.787 2°54.765 6.7 59 2.5 100830 84
2005-02-21 08:33:10 51°14.805 2°54.757 6.8 47 2.5 100830 84
2005-02-21 08:33:14 51°14.819 2°54.75 7.2 54 2.5 100830 84
2005-02-21 08:33:21 51°14.842 2°54.74 6.6 56 2.5 100830 84
2005-02-21 08:33:25 51°14.856 2°54.734 6.6 54 2.5 100820 84
2005-02-21 08:33:30 51°14.875 2°54.725 6.2 66 2.5 100820 84
2005-02-21 08:33:36 51°14.894 2°54.715 6.6 61 2.5 100830 84
2005-02-21 08:33:41 51°14.912 2°54.707 6.7 57 2.5 100830 84
2005-02-21 08:33:45 51°14.927 2°54.699 6.7 55 2.5 100830 84
2005-02-21 08:33:50 51°14.945 2°54.691 6.4 58 2.5 100830 84
2005-02-21 08:33:56 51°14.965 2°54.682 6.4 59 2.5 100840 85
2005-02-21 08:34:01 51°14.982 2°54.673 6.5 53 2.5 100840 85
2005-02-21 08:34:06 51°15 2°54.665 6.4 63 2.5 100840 85
2005-02-21 08:34:10 51°15.015 2°54.658 6.5 56 2.5 100840 85
2005-02-21 08:34:16 51°15.034 2°54.649 6.9 55 2.5 100840 85
2005-02-21 08:34:21 51°15.051 2°54.641 6.1 54 2.5 100840 85
2005-02-21 08:34:25 51°15.067 2°54.633 6.9 54 2.5 100830 85
2005-02-21 08:34:30 51°15.085 2°54.625 7.1 51 2.5 100830 85
2005-02-21 08:34:35 51°15.102 2°54.617 6.7 52 2.5 100830 85
2005-02-21 08:34:41 51°15.121 2°54.608 6.2 55 2.5 100830 85
2005-02-21 08:34:45 51°15.135 2°54.6 5.6 54 2.5 100840 85
2005-02-21 08:34:50 51°15.153 2°54.591 5.7 52 2.5 100840 85
2005-02-21 08:34:54 51°15.167 2°54.583 5.8 52 2.5 100820 85
2005-02-21 08:35:00 51°15.188 2°54.573 6 54 2.5 100820 85
2005-02-21 08:35:05 51°15.205 2°54.564 6.2 52 2.5 100840 85
2005-02-21 08:35:11 51°15.225 2°54.556 6.6 59 2.5 100840 85
2005-02-21 08:35:16 51°15.242 2°54.549 6 58 2.5 100840 85
2005-02-21 08:35:20 51°15.258 2°54.541 6 55 2.5 100840 85
2005-02-21 08:35:25 51°15.276 2°54.532 5.3 51 2.5 100830 85
2005-02-21 08:35:30 51°15.293 2°54.524 5.8 56 2.5 100830 85
2005-02-21 08:35:35 51°15.309 2°54.516 6.7 51 2.5 100840 85
2005-02-21 08:35:40 51°15.329 2°54.507 6.7 52 2.5 100840 85
2005-02-21 08:35:45 51°15.346 2°54.499 6.5 49 2.5 100830 85
2005-02-21 08:35:50 51°15.363 2°54.491 5.8 54 2.5 100830 85
2005-02-21 08:35:56 51°15.383 2°54.482 5.4 56 2.5 100830 85
2005-02-21 08:36:01 51°15.401 2°54.474 5.7 51 2.5 100830 85
2005-02-21 08:36:06 51°15.418 2°54.467 5.5 56 2.5 100830 85
2005-02-21 08:36:10 51°15.434 2°54.46 5.4 50 2.5 100830 85
2005-02-21 08:36:15 51°15.452 2°54.452 6 56 2.5 100830 85
2005-02-21 08:36:21 51°15.471 2°54.443 5.4 46 2.5 100830 85
2005-02-21 08:36:25 51°15.486 2°54.437 6.8 51 2.5 100830 86
2005-02-21 08:36:30 51°15.505 2°54.428 5.8 47 2.5 100830 86
2005-02-21 08:36:35 51°15.523 2°54.42 5.7 52 2.5 100790 86
2005-02-21 08:36:41 51°15.542 2°54.411 6.3 49 2.5 100790 86
2005-02-21 08:36:45 51°15.558 2°54.405 6.1 50 2.5 100790 86
2005-02-21 08:36:50 51°15.575 2°54.396 6 50 2.5 100790 86
2005-02-21 08:36:55 51°15.592 2°54.389 6.3 55 2.5 100790 86
2005-02-21 08:37:00 51°15.61 2°54.38 5.8 55 2.5 100790 86
2005-02-21 08:37:05 51°15.628 2°54.371 5.9 49 2.5 100780 86
2005-02-21 08:37:10 51°15.645 2°54.363 5.9 53 2.5 100780 86
2005-02-21 08:37:14 51°15.659 2°54.357 6 42 2.5 100790 86
2005-02-21 08:37:20 51°15.68 2°54.347 6.1 49 2.5 100790 86
2005-02-21 08:37:26 51°15.699 2°54.338 6.2 46 2.5 100790 86
2005-02-21 08:37:30 51°15.715 2°54.33 6.2 44 2.5 100790 86
2005-02-21 08:37:36 51°15.734 2°54.321 6.8 41 2.5 100780 86
2005-02-21 08:37:41 51°15.752 2°54.313 6.6 41 2.5 100780 86
2005-02-21 08:37:45 51°15.766 2°54.305 6.2 47 2.6 100780 86
2005-02-21 08:37:50 51°15.785 2°54.297 6.8 46 2.6 100780 86
2005-02-21 08:37:55 51°15.802 2°54.288 6.6 47 2.6 100780 86
2005-02-21 08:38:01 51°15.821 2°54.278 6.8 46 2.6 100780 86
2005-02-21 08:38:05 51°15.836 2°54.27 6.5 52 2.6 100790 86
2005-02-21 08:38:10 51°15.853 2°54.261 6.2 49 2.6 100790 86
2005-02-21 08:38:15 51°15.869 2°54.252 7 45 2.6 100790 86
2005-02-21 08:38:21 51°15.889 2°54.241 6.2 48 2.6 100790 86
2005-02-21 08:38:25 51°15.903 2°54.234 5.9 49 2.6 100790 86
2005-02-21 08:38:30 51°15.919 2°54.225 4.7 54 2.6 100790 86
2005-02-21 08:38:34 51°15.932 2°54.218 5 54 2.6 100780 86
2005-02-21 08:38:41 51°15.951 2°54.207 4.7 55 2.6 100780 86
2005-02-21 08:38:45 51°15.963 2°54.201 4.7 57 2.6 100790 86
2005-02-21 08:38:50 51°15.975 2°54.194 4.9 67 2.6 100790 86
2005-02-21 08:38:55 51°15.987 2°54.189 5 69 2.6 100830 86
2005-02-21 08:39:01 51°16.002 2°54.183 5.4 58 2.6 100830 86
2005-02-21 08:39:06 51°16.015 2°54.18 6.1 61 2.6 100810 86
2005-02-21 08:39:10 51°16.026 2°54.179 6.1 61 2.6 100810 86
2005-02-21 08:39:15 51°16.037 2°54.179 6.1 63 2.6 100810 86
2005-02-21 08:39:20 51°16.05 2°54.18 6.6 54 2.6 100810 86
2005-02-21 08:39:26 51°16.062 2°54.184 6.8 56 2.6 100810 86
2005-02-21 08:39:30 51°16.072 2°54.188 6.5 60 2.6 100810 86
2005-02-21 08:39:35 51°16.084 2°54.194 6.9 50 2.6 100810 86
2005-02-21 08:39:41 51°16.096 2°54.202 6.6 54 2.6 100810 86
2005-02-21 08:39:45 51°16.105 2°54.209 6.8 47 2.6 100800 86
2005-02-21 08:39:51 51°16.119 2°54.218 7 57 2.6 100800 86
2005-02-21 08:39:56 51°16.13 2°54.226 6.6 53 2.6 100800 86
2005-02-21 08:40:00 51°16.14 2°54.233 6.9 56 2.6 100800 86
2005-02-21 08:40:05 51°16.151 2°54.24 7 56 2.6 100800 86
2005-02-21 08:40:10 51°16.161 2°54.248 7.3 54 2.6 100800 86
2005-02-21 08:40:16 51°16.173 2°54.255 6.8 55 2.6 100800 86
2005-02-21 08:40:20 51°16.181 2°54.26 6.5 65 2.6 100800 86
2005-02-21 08:40:25 51°16.19 2°54.266 6.4 64 2.6 100800 86
2005-02-21 08:40:30 51°16.199 2°54.271 6 63 2.6 100800 86
2005-02-21 08:40:36 51°16.208 2°54.276 6.4 66 2.6 100810 86
2005-02-21 08:40:41 51°16.215 2°54.281 6.4 69 2.6 100810 86
2005-02-21 08:40:46 51°16.223 2°54.285 5.2 73 2.6 100810 86
2005-02-21 08:40:50 51°16.229 2°54.288 5.9 70 2.6 100810 86
2005-02-21 08:40:56 51°16.236 2°54.293 5.2 72 2.6 100810 86
2005-02-21 08:41:01 51°16.241 2°54.296 5.4 80 2.6 100810 86
2005-02-21 08:41:05 51°16.246 2°54.298 5.4 80 2.6 100820 86
2005-02-21 08:41:10 51°16.251 2°54.3 5.8 89 2.6 100820 86
2005-02-21 08:41:14 51°16.254 2°54.301 4.6 102 2.6 100820 86
2005-02-21 08:41:20 51°16.258 2°54.303 4.9 104 2.6 100820 86
2005-02-21 08:41:26 51°16.26 2°54.303 4.3 108 2.6 100830 86
2005-02-21 08:41:31 51°16.262 2°54.304 4.7 113 2.6 100830 86
2005-02-21 08:41:35 51°16.264 2°54.303 3.9 120 2.6 100820 86
2005-02-21 08:41:40 51°16.266 2°54.304 4 122 2.6 100820 86
2005-02-21 08:41:46 51°16.268 2°54.303 4.1 133 2.6 100820 86
2005-02-21 08:41:50 51°16.27 2°54.303 3.8 130 2.6 100820 86
2005-02-21 08:41:55 51°16.271 2°54.303 3.9 130 2.6 100830 86
2005-02-21 08:42:01 51°16.272 2°54.303 4.2 225 2.6 100830 86
2005-02-21 08:42:05 51°16.274 2°54.302 4.4 136 2.6 100820 86
2005-02-21 08:42:10 51°16.275 2°54.301 4 140 2.6 100820 86
2005-02-21 08:42:15 51°16.277 2°54.3 4.2 142 2.6 100820 86
2005-02-21 08:42:20 51°16.278 2°54.299 4.2 138 2.6 100820 86
2005-02-21 08:42:26 51°16.279 2°54.299 4.3 140 2.6 100830 86
2005-02-21 08:42:30 51°16.28 2°54.297 4.1 133 2.6 100830 86
2005-02-21 08:42:34 51°16.281 2°54.296 4.2 135 2.6 100820 86
2005-02-21 08:42:40 51°16.281 2°54.295 4.6 139 2.6 100820 86
2005-02-21 08:42:45 51°16.282 2°54.294 4.5 139 2.6 100830 86
2005-02-21 08:42:50 51°16.283 2°54.293 4.4 137 2.6 100830 86
2005-02-21 08:42:56 51°16.284 2°54.292 3.8 135 2.6 100820 86
2005-02-21 08:43:01 51°16.284 2°54.29 4.7 139 2.6 100820 86
2005-02-21 08:43:06 51°16.284 2°54.289 4.5 138 2.6 100830 86
2005-02-21 08:43:10 51°16.285 2°54.288 4.1 138 2.6 100830 86
2005-02-21 08:43:15 51°16.285 2°54.288 4.7 146 2.6 100820 86
2005-02-21 08:43:21 51°16.286 2°54.286 4.7 145 2.6 100820 86
2005-02-21 08:43:25 51°16.286 2°54.285 4.6 141 2.6 100830 86
2005-02-21 08:43:30 51°16.286 2°54.284 4.3 144 2.6 100830 86
2005-02-21 08:43:34 51°16.287 2°54.283 4.4 146 2.6 100820 86
2005-02-21 08:43:40 51°16.287 2°54.282 4.5 141 2.6 100820 86
2005-02-21 08:43:45 51°16.287 2°54.281 4.2 147 2.6 100830 86
2005-02-21 08:43:50 51°16.287 2°54.28 4.3 141 2.6 100830 86
2005-02-21 08:43:55 51°16.287 2°54.28 4.3 142 2.6 100820 86
2005-02-21 08:44:01 51°16.288 2°54.279 4.3 149 2.6 100820 86
2005-02-21 08:44:06 51°16.288 2°54.278 4.5 141 2.6 100820 86
2005-02-21 08:44:10 51°16.288 2°54.277 4 140 2.6 100820 86
2005-02-21 08:44:15 51°16.288 2°54.276 4.6 143 2.6 100820 86
2005-02-21 08:44:20 51°16.288 2°54.275 4.1 142 2.6 100820 86
2005-02-21 08:44:25 51°16.288 2°54.275 4.4 142 2.6 100820 86
2005-02-21 08:44:30 51°16.288 2°54.274 4.3 143 2.6 100820 86
2005-02-21 08:44:36 51°16.288 2°54.273 4.7 145 2.6 100820 86
2005-02-21 08:44:41 51°16.288 2°54.272 4.4 145 2.6 100820 86
2005-02-21 08:44:45 51°16.288 2°54.271 4 138 2.6 100820 86
2005-02-21 08:44:50 51°16.288 2°54.27 4.2 144 2.6 100820 86
2005-02-21 08:44:56 51°16.287 2°54.27 4.5 145 2.6 100820 86
2005-02-21 08:45:01 51°16.287 2°54.268 4.6 144 2.6 100820 86
2005-02-21 08:45:05 51°16.287 2°54.268 5 137 2.6 100830 86
2005-02-21 08:45:10 51°16.287 2°54.267 4.7 227 2.6 100830 86
2005-02-21 08:45:15 51°16.287 2°54.267 4.6 140 2.6 100820 86
2005-02-21 08:45:21 51°16.287 2°54.266 4.4 146 2.6 100820 86
2005-02-21 08:45:25 51°16.287 2°54.266 4.7 143 2.5 100830 86
2005-02-21 08:45:30 51°16.286 2°54.265 4.8 141 2.5 100830 86
2005-02-21 08:45:35 51°16.286 2°54.265 4.2 139 2.5 100820 86
2005-02-21 08:45:41 51°16.286 2°54.264 5 141 2.5 100820 86
2005-02-21 08:45:45 51°16.285 2°54.264 4.2 134 2.5 100830 86
2005-02-21 08:45:50 51°16.285 2°54.263 4.3 134 2.5 100830 86
2005-02-21 08:45:55 51°16.285 2°54.262 3.9 135 2.5 100810 86
2005-02-21 08:46:01 51°16.284 2°54.262 3.9 132 2.5 100810 86
2005-02-21 08:46:05 51°16.284 2°54.262 3.1 148 2.6 100820 86
2005-02-21 08:46:10 51°16.284 2°54.261 4.2 141 2.6 100820 86
2005-02-21 08:46:14 51°16.284 2°54.261 4.1 132 2.5 100820 86
2005-02-21 08:46:21 51°16.283 2°54.261 4.1 138 2.5 100820 86
2005-02-21 08:46:25 51°16.283 2°54.26 4.1 137 2.5 100820 86
2005-02-21 08:46:30 51°16.283 2°54.26 4.2 129 2.5 100820 86
2005-02-21 08:46:36 51°16.283 2°54.259 3.8 136 2.6 100820 86
2005-02-21 08:46:41 51°16.282 2°54.259 4 136 2.6 100820 86
2005-02-21 08:46:45 51°16.282 2°54.258 4.1 135 2.6 100830 86
2005-02-21 08:46:50 51°16.281 2°54.258 4.1 141 2.6 100830 86
2005-02-21 08:46:54 51°16.281 2°54.257 4.3 141 2.6 100820 86
2005-02-21 08:47:01 51°16.28 2°54.257 3.8 142 2.6 100820 86
2005-02-21 08:47:05 51°16.28 2°54.256 3.8 138 2.6 100820 86
2005-02-21 08:47:10 51°16.279 2°54.256 4.6 136 2.6 100820 86
2005-02-21 08:47:16 51°16.279 2°54.255 4.6 135 2.6 100820 85
2005-02-21 08:47:21 51°16.278 2°54.255 4 134 2.6 100820 85
2005-02-21 08:47:25 51°16.278 2°54.254 4.5 137 2.6 100830 85
2005-02-21 08:47:30 51°16.277 2°54.254 4.6 135 2.6 100830 85
2005-02-21 08:47:35 51°16.277 2°54.253 4 134 2.6 100820 85
2005-02-21 08:47:41 51°16.277 2°54.252 3.8 129 2.6 100820 85
2005-02-21 08:47:45 51°16.276 2°54.252 4.9 127 2.6 100820 85
2005-02-21 08:47:50 51°16.275 2°54.252 5 125 2.6 100820 85
2005-02-21 08:47:54 51°16.275 2°54.251 3.6 120 2.6 100820 85
2005-02-21 08:48:01 51°16.274 2°54.251 4.3 127 2.6 100820 85
2005-02-21 08:48:05 51°16.273 2°54.25 3.7 134 2.6 100820 85
2005-02-21 08:48:10 51°16.272 2°54.25 3.9 130 2.6 100820 85
2005-02-21 08:48:15 51°16.272 2°54.249 3.5 134 2.6 100820 85
2005-02-21 08:48:21 51°16.271 2°54.25 3.8 136 2.6 100820 85
2005-02-21 08:48:25 51°16.27 2°54.249 4 137 2.6 100830 85
2005-02-21 08:48:31 51°16.269 2°54.249 3.6 134 2.6 100830 85
2005-02-21 08:48:35 51°16.269 2°54.248 3.7 138 2.6 100820 85
2005-02-21 08:48:40 51°16.268 2°54.248 4 142 2.6 100820 85
2005-02-21 08:48:45 51°16.267 2°54.248 3.8 138 2.6 100820 85
2005-02-21 08:48:51 51°16.266 2°54.247 3.7 141 2.6 100820 85
2005-02-21 08:48:55 51°16.266 2°54.247 3.6 136 2.6 100820 85
2005-02-21 08:49:01 51°16.265 2°54.247 3.4 137 2.6 100820 85
2005-02-21 08:49:05 51°16.264 2°54.247 3.7 136 2.6 100820 85
2005-02-21 08:49:10 51°16.264 2°54.247 3.8 131 2.6 100820 85
2005-02-21 08:49:15 51°16.263 2°54.247 3.9 138 2.6 100830 85
2005-02-21 08:49:21 51°16.262 2°54.246 3.7 136 2.6 100830 85
2005-02-21 08:49:25 51°16.262 2°54.246 3.7 139 2.6 100820 85
2005-02-21 08:49:30 51°16.26 2°54.246 3.6 144 2.6 100820 85
2005-02-21 08:49:36 51°16.259 2°54.246 3.7 142 2.6 100820 85
2005-02-21 08:49:41 51°16.259 2°54.246 3.9 141 2.6 100820 85
2005-02-21 08:49:45 51°16.258 2°54.246 3.8 143 2.7 100820 85
2005-02-21 08:49:50 51°16.257 2°54.245 3.3 143 2.7 100820 85
2005-02-21 08:49:55 51°16.257 2°54.245 3.5 140 2.7 100820 85
2005-02-21 08:50:01 51°16.256 2°54.245 3 137 2.7 100820 85
2005-02-21 08:50:05 51°16.255 2°54.245 2.9 145 2.7 100820 85
2005-02-21 08:50:10 51°16.254 2°54.245 3.5 145 2.7 100820 85
2005-02-21 08:50:15 51°16.254 2°54.245 3.1 143 2.7 100820 85
2005-02-21 08:50:20 51°16.253 2°54.245 3.8 146 2.7 100820 85
2005-02-21 08:50:25 51°16.252 2°54.245 3.3 154 2.7 100820 85
2005-02-21 08:50:30 51°16.252 2°54.245 3.8 147 2.7 100820 85
2005-02-21 08:50:35 51°16.251 2°54.244 3.5 155 2.7 100820 86
2005-02-21 08:50:41 51°16.25 2°54.245 4 144 2.7 100820 86
2005-02-21 08:50:45 51°16.249 2°54.244 3.3 147 2.7 100820 85
2005-02-21 08:50:50 51°16.249 2°54.244 3.3 146 2.7 100820 85
2005-02-21 08:50:55 51°16.248 2°54.243 3.6 148 2.7 100820 85
2005-02-21 08:51:01 51°16.247 2°54.245 3.6 147 2.7 100820 85
2005-02-21 08:51:05 51°16.247 2°54.244 3.5 155 2.7 100820 85
2005-02-21 08:51:10 51°16.245 2°54.244 3.5 150 2.7 100820 85
2005-02-21 08:51:16 51°16.245 2°54.244 3.3 152 2.7 100830 85
2005-02-21 08:51:21 51°16.244 2°54.244 3.5 148 2.7 100830 85
2005-02-21 08:51:25 51°16.243 2°54.244 3.2 150 2.7 100820 85
2005-02-21 08:51:30 51°16.243 2°54.244 3.3 150 2.7 100820 85
2005-02-21 08:51:34 51°16.242 2°54.244 3.3 161 2.7 100820 85
2005-02-21 08:51:41 51°16.241 2°54.244 3.4 153 2.7 100820 85
2005-02-21 08:51:46 51°16.24 2°54.243 3.6 167 2.8 100820 85
2005-02-21 08:51:50 51°16.24 2°54.244 3.4 158 2.8 100820 85
2005-02-21 08:51:56 51°16.239 2°54.244 3.9 162 2.8 100830 85
2005-02-21 08:52:01 51°16.238 2°54.244 3.5 165 2.8 100830 85
2005-02-21 08:52:06 51°16.238 2°54.244 3.5 163 2.8 100810 85
2005-02-21 08:52:10 51°16.237 2°54.243 3.2 164 2.8 100810 85
2005-02-21 08:52:15 51°16.236 2°54.244 3.4 162 2.8 100830 85
2005-02-21 08:52:21 51°16.236 2°54.243 2.9 161 2.8 100830 85
2005-02-21 08:52:25 51°16.235 2°54.242 3.2 155 2.7 100830 85
2005-02-21 08:52:30 51°16.236 2°54.24 2.6 150 2.7 100830 85
2005-02-21 08:52:36 51°16.236 2°54.238 2.6 146 2.7 100820 85
2005-02-21 08:52:41 51°16.237 2°54.235 2.5 150 2.7 100820 85
2005-02-21 08:52:45 51°16.238 2°54.232 2.4 139 2.7 100820 85
2005-02-21 08:52:50 51°16.24 2°54.227 2 141 2.7 100820 85
2005-02-21 08:52:54 51°16.241 2°54.222 2 135 2.7 100810 85
2005-02-21 08:53:00 51°16.245 2°54.215 1.8 125 2.7 100810 85
2005-02-21 08:53:06 51°16.248 2°54.207 1.6 124 2.7 100820 85
2005-02-21 08:53:10 51°16.251 2°54.2 1.4 120 2.7 100820 85
2005-02-21 08:53:15 51°16.255 2°54.192 2.1 117 2.7 100820 85
2005-02-21 08:53:21 51°16.26 2°54.182 1.5 103 2.7 100820 85
2005-02-21 08:53:25 51°16.264 2°54.175 1.7 99 2.7 100820 85
2005-02-21 08:53:30 51°16.269 2°54.164 1.6 84 2.7 100820 85
2005-02-21 08:53:35 51°16.275 2°54.153 1.6 68 2.7 100810 85
2005-02-21 08:53:41 51°16.283 2°54.137 2.6 55 2.7 100810 85
2005-02-21 08:53:45 51°16.289 2°54.124 2.8 48 2.7 100820 85
2005-02-21 08:53:51 51°16.297 2°54.107 3 59 2.7 100820 85
2005-02-21 08:53:56 51°16.305 2°54.091 3 31 2.8 100820 84
2005-02-21 08:54:01 51°16.313 2°54.073 4.1 38 2.8 100820 84
2005-02-21 08:54:05 51°16.321 2°54.058 3.3 41 2.7 100820 84
2005-02-21 08:54:10 51°16.33 2°54.038 3.6 39 2.7 100820 84
2005-02-21 08:54:16 51°16.34 2°54.017 3.5 38 2.7 100810 84
2005-02-21 08:54:21 51°16.349 2°53.999 3.4 34 2.7 100810 84
2005-02-21 08:54:25 51°16.358 2°53.981 3.6 30 2.7 100810 84
2005-02-21 08:54:30 51°16.368 2°53.961 4 27 2.7 100810 84
2005-02-21 08:54:34 51°16.375 2°53.945 4 33 2.7 100790 84
2005-02-21 08:54:41 51°16.389 2°53.918 4.1 33 2.7 100790 84
2005-02-21 08:54:46 51°16.399 2°53.899 4.8 33 2.7 100780 84
2005-02-21 08:54:50 51°16.408 2°53.879 3.7 38 2.7 100780 84
2005-02-21 08:54:55 51°16.417 2°53.86 3.6 30 2.7 100780 84
2005-02-21 08:55:00 51°16.429 2°53.836 4.6 25 2.7 100780 84
2005-02-21 08:55:06 51°16.441 2°53.813 4.9 22 2.7 100780 84
2005-02-21 08:55:10 51°16.451 2°53.793 5 31 2.7 100780 84
2005-02-21 08:55:14 51°16.459 2°53.776 4.6 31 2.7 100780 84
2005-02-21 08:55:20 51°16.472 2°53.75 4.2 -999 2.7 100780 84
2005-02-21 08:55:26 51°16.486 2°53.723 4.1 30 2.7 100780 84
2005-02-21 08:55:31 51°16.495 2°53.704 3.7 25 2.7 100780 84
2005-02-21 08:55:36 51°16.507 2°53.68 3.9 40 2.7 100780 85
2005-02-21 08:55:41 51°16.517 2°53.658 4.5 26 2.7 100780 85
2005-02-21 08:55:45 51°16.527 2°53.638 4.9 27 2.7 100770 85
2005-02-21 08:55:50 51°16.539 2°53.615 4.8 25 2.7 100770 85
2005-02-21 08:55:55 51°16.549 2°53.594 4.9 34 2.7 100770 85
2005-02-21 08:56:00 51°16.56 2°53.571 3.6 19 2.7 100770 85
2005-02-21 08:56:05 51°16.571 2°53.547 3.9 25 2.7 100770 85
2005-02-21 08:56:10 51°16.582 2°53.525 4.6 15 2.7 100770 85
2005-02-21 08:56:16 51°16.594 2°53.501 4.5 31 2.7 100780 85
2005-02-21 08:56:21 51°16.605 2°53.477 4.4 27 2.7 100780 85
2005-02-21 08:56:25 51°16.615 2°53.458 4.8 25 2.7 100780 85
2005-02-21 08:56:30 51°16.627 2°53.436 4.8 22 2.7 100780 85
2005-02-21 08:56:35 51°16.638 2°53.413 4.8 26 2.7 100780 85
2005-02-21 08:56:41 51°16.649 2°53.39 3.7 29 2.7 100780 85
2005-02-21 08:56:45 51°16.659 2°53.368 4 23 2.7 100780 85
2005-02-21 08:56:50 51°16.67 2°53.345 4.4 24 2.7 100780 85
2005-02-21 08:56:55 51°16.679 2°53.324 4.3 25 2.7 100780 85
2005-02-21 08:57:01 51°16.691 2°53.294 5.4 20 2.7 100780 85
2005-02-21 08:57:05 51°16.701 2°53.275 3.8 20 2.7 100780 85
2005-02-21 08:57:10 51°16.71 2°53.251 4.4 25 2.7 100780 85
2005-02-21 08:57:15 51°16.72 2°53.229 4.2 25 2.7 100770 85
2005-02-21 08:57:21 51°16.732 2°53.201 5 20 2.7 100770 85
2005-02-21 08:57:25 51°16.741 2°53.182 4.4 27 2.7 100780 85
2005-02-21 08:57:30 51°16.752 2°53.158 4.4 25 2.7 100780 85
2005-02-21 08:57:35 51°16.761 2°53.137 5.3 24 2.7 100770 85
2005-02-21 08:57:40 51°16.773 2°53.111 4.5 21 2.7 100770 85
2005-02-21 08:57:46 51°16.785 2°53.085 4.9 25 2.7 100770 85
2005-02-21 08:57:50 51°16.794 2°53.064 4.5 23 2.7 100770 85
2005-02-21 08:57:56 51°16.806 2°53.037 4.6 24 2.7 100770 85
2005-02-21 08:58:00 51°16.815 2°53.015 5.3 27 2.7 100770 85
2005-02-21 08:58:05 51°16.825 2°52.991 5.6 24 2.7 100770 85
2005-02-21 08:58:10 51°16.835 2°52.967 5.1 23 2.7 100770 85
2005-02-21 08:58:16 51°16.845 2°52.941 5.3 24 2.7 100770 85
2005-02-21 08:58:21 51°16.855 2°52.917 4.8 24 2.7 100770 85
2005-02-21 08:58:25 51°16.863 2°52.894 4.6 24 2.7 100810 85
2005-02-21 08:58:30 51°16.874 2°52.87 5.5 24 2.7 100810 85
2005-02-21 08:58:36 51°16.886 2°52.845 6.4 22 2.7 100770 86
2005-02-21 08:58:40 51°16.895 2°52.826 4.6 24 2.7 100770 86
2005-02-21 08:58:45 51°16.907 2°52.803 6.2 28 2.7 100770 86
2005-02-21 08:58:50 51°16.919 2°52.782 6.2 35 2.7 100770 86
2005-02-21 08:58:55 51°16.93 2°52.763 6.4 39 2.7 100770 86
2005-02-21 08:59:01 51°16.944 2°52.739 6.2 39 2.7 100770 86
2005-02-21 08:59:05 51°16.956 2°52.719 7 36 2.7 100770 86
2005-02-21 08:59:10 51°16.968 2°52.699 6.5 39 2.7 100770 86
2005-02-21 08:59:15 51°16.98 2°52.679 7 41 2.7 100770 86
2005-02-21 08:59:21 51°16.994 2°52.655 8.2 41 2.7 100760 86
2005-02-21 08:59:25 51°17.006 2°52.637 8.3 39 2.8 100760 86
2005-02-21 08:59:30 51°17.018 2°52.617 7.5 44 2.8 100760 86
2005-02-21 08:59:35 51°17.03 2°52.598 6.8 38 2.8 100770 86
2005-02-21 08:59:41 51°17.044 2°52.576 7 40 2.8 100770 86
2005-02-21 08:59:45 51°17.055 2°52.557 6.4 45 2.8 100760 86
2005-02-21 08:59:50 51°17.069 2°52.538 6.4 51 2.8 100760 86
2005-02-21 08:59:55 51°17.081 2°52.519 6.2 49 2.8 100760 86
2005-02-21 09:00:00 51°17.094 2°52.5 8.2 41 2.8 100760 86
2005-02-21 09:00:05 51°17.107 2°52.482 7.5 40 2.8 100760 86
2005-02-21 09:00:10 51°17.121 2°52.462 9 45 2.8 100760 86
2005-02-21 09:00:15 51°17.133 2°52.443 9.4 44 2.8 100760 86
2005-02-21 09:00:21 51°17.148 2°52.423 7.4 43 2.8 100770 86
2005-02-21 09:00:25 51°17.158 2°52.407 7.7 51 2.8 100770 86
2005-02-21 09:00:30 51°17.172 2°52.385 9.2 44 2.8 100760 86
2005-02-21 09:00:36 51°17.186 2°52.364 8.2 44 2.8 100760 86
2005-02-21 09:00:41 51°17.199 2°52.345 7.7 49 2.8 100760 86
2005-02-21 09:00:45 51°17.21 2°52.33 7.9 50 2.8 100760 86
2005-02-21 09:00:50 51°17.225 2°52.308 7.6 47 2.8 100760 86
2005-02-21 09:00:55 51°17.237 2°52.289 6.7 51 2.9 100760 85
2005-02-21 09:01:01 51°17.252 2°52.266 8.2 43 2.9 100760 85
2005-02-21 09:01:05 51°17.264 2°52.25 7.4 40 2.9 100760 85
2005-02-21 09:01:10 51°17.277 2°52.231 8.9 43 2.9 100760 85
2005-02-21 09:01:15 51°17.291 2°52.211 8.2 44 2.9 100760 85
2005-02-21 09:01:21 51°17.305 2°52.193 6.6 48 2.9 100760 85
2005-02-21 09:01:26 51°17.318 2°52.174 7 50 2.9 100760 85
2005-02-21 09:01:30 51°17.33 2°52.157 7.7 48 2.9 100770 85
2005-02-21 09:01:35 51°17.344 2°52.139 7.7 49 2.9 100770 85
2005-02-21 09:01:41 51°17.358 2°52.121 6.5 41 2.9 100760 85
2005-02-21 09:01:45 51°17.369 2°52.106 6.9 47 2.9 100760 85
2005-02-21 09:01:50 51°17.385 2°52.085 8.6 42 2.9 100760 85
2005-02-21 09:01:55 51°17.398 2°52.069 7.8 44 3 100760 85
2005-02-21 09:02:00 51°17.412 2°52.05 8.4 48 3 100760 85
2005-02-21 09:02:05 51°17.426 2°52.031 8.7 44 3 100760 85
2005-02-21 09:02:10 51°17.44 2°52.013 7.6 49 3 100760 85
2005-02-21 09:02:15 51°17.454 2°51.996 8 44 3 100760 85
2005-02-21 09:02:21 51°17.47 2°51.975 9.3 45 3 100760 85
2005-02-21 09:02:25 51°17.481 2°51.96 8.9 47 3 100760 85
2005-02-21 09:02:30 51°17.496 2°51.942 8.3 48 3 100760 85
2005-02-21 09:02:35 51°17.51 2°51.924 8.2 50 3 100760 85
2005-02-21 09:02:41 51°17.526 2°51.904 8.9 53 3 100760 85
2005-02-21 09:02:45 51°17.538 2°51.889 8.3 54 3 100760 85
2005-02-21 09:02:50 51°17.553 2°51.871 8.4 54 3 100760 84
2005-02-21 09:02:56 51°17.568 2°51.852 8.1 50 3 100750 84
2005-02-21 09:03:00 51°17.581 2°51.836 7.2 54 3 100750 84
2005-02-21 09:03:05 51°17.595 2°51.818 7.9 49 3 100750 84
2005-02-21 09:03:10 51°17.609 2°51.801 7.5 49 3 100750 84
2005-02-21 09:03:15 51°17.622 2°51.784 7.9 51 3 100750 84
2005-02-21 09:03:21 51°17.639 2°51.764 7.2 57 3 100750 84
2005-02-21 09:03:25 51°17.652 2°51.748 7.4 54 3 100750 84
2005-02-21 09:03:30 51°17.666 2°51.731 8 50 3 100750 84
2005-02-21 09:03:34 51°17.678 2°51.716 7.6 46 3 100760 84
2005-02-21 09:03:41 51°17.696 2°51.694 8 48 3 100760 84
2005-02-21 09:03:45 51°17.709 2°51.678 7.9 41 3 100750 84
2005-02-21 09:03:50 51°17.724 2°51.659 8.7 47 3 100750 84
2005-02-21 09:03:56 51°17.738 2°51.641 8.5 42 3 100750 84
2005-02-21 09:04:01 51°17.753 2°51.622 7.8 46 3 100760 84
2005-02-21 09:04:05 51°17.766 2°51.606 7.9 43 3 100760 84
2005-02-21 09:04:10 51°17.78 2°51.588 7.4 52 3 100760 84
2005-02-21 09:04:15 51°17.793 2°51.571 6.5 53 3 100760 84
2005-02-21 09:04:20 51°17.808 2°51.552 7.4 55 3 100760 84
2005-02-21 09:04:25 51°17.82 2°51.535 6.6 47 3 100760 84
2005-02-21 09:04:30 51°17.834 2°51.516 8.1 53 3 100760 84
2005-02-21 09:04:35 51°17.847 2°51.499 7.6 52 3 100760 84
2005-02-21 09:04:41 51°17.863 2°51.479 7.4 57 3 100760 84
2005-02-21 09:04:45 51°17.875 2°51.464 8.1 49 3.1 100760 84
2005-02-21 09:04:50 51°17.889 2°51.447 8.3 42 3.1 100760 84
2005-02-21 09:04:55 51°17.903 2°51.429 8.7 38 3.1 100760 84
2005-02-21 09:05:00 51°17.918 2°51.413 8.6 44 3.1 100760 84
2005-02-21 09:05:05 51°17.932 2°51.395 8.9 45 3.1 100760 84
2005-02-21 09:05:11 51°17.947 2°51.377 8.5 43 3.1 100750 85
2005-02-21 09:05:16 51°17.962 2°51.359 8.9 43 3.1 100750 85
2005-02-21 09:05:21 51°17.976 2°51.341 8.7 49 3.1 100760 85
2005-02-21 09:05:25 51°17.988 2°51.326 8.6 47 3 100760 84
2005-02-21 09:05:30 51°18.002 2°51.308 7.5 43 3 100760 84
2005-02-21 09:05:35 51°18.017 2°51.29 8.4 48 3 100760 84
2005-02-21 09:05:40 51°18.031 2°51.272 9.1 42 3 100760 84
2005-02-21 09:05:45 51°18.044 2°51.255 9 46 3 100760 84
2005-02-21 09:05:50 51°18.059 2°51.237 8 53 3 100760 84
2005-02-21 09:05:55 51°18.073 2°51.219 7.9 53 3 100760 84
2005-02-21 09:06:01 51°18.089 2°51.199 7.8 50 3 100760 84
2005-02-21 09:06:05 51°18.101 2°51.183 7.5 50 3.1 100760 84
2005-02-21 09:06:10 51°18.115 2°51.164 8.2 46 3.1 100760 84
2005-02-21 09:06:15 51°18.128 2°51.147 7.3 40 3.1 100760 84
2005-02-21 09:06:21 51°18.144 2°51.126 7.3 47 3.1 100750 84
2005-02-21 09:06:25 51°18.154 2°51.111 7.7 43 3.1 100750 84
2005-02-21 09:06:30 51°18.17 2°51.09 7.2 52 3.1 100750 84
2005-02-21 09:06:35 51°18.184 2°51.072 7.2 51 3.1 100750 84
2005-02-21 09:06:40 51°18.198 2°51.053 6.8 44 3.1 100760 84
2005-02-21 09:06:46 51°18.214 2°51.033 8 49 3.1 100760 84
2005-02-21 09:06:50 51°18.226 2°51.017 7.2 41 3.1 100760 84
2005-02-21 09:06:55 51°18.24 2°51.001 7 49 3.1 100760 84
2005-02-21 09:07:00 51°18.254 2°50.987 7 37 3.1 100760 84
2005-02-21 09:07:05 51°18.268 2°50.975 7.2 37 3.1 100760 84
2005-02-21 09:07:10 51°18.281 2°50.963 8.3 44 3.1 100760 84
2005-02-21 09:07:15 51°18.294 2°50.954 7.7 50 3.1 100760 84
2005-02-21 09:07:21 51°18.308 2°50.943 7.7 44 3.1 100760 84
2005-02-21 09:07:25 51°18.317 2°50.937 7.4 48 3.1 100760 84
2005-02-21 09:07:30 51°18.329 2°50.932 7.6 49 3.1 100790 84
2005-02-21 09:07:36 51°18.34 2°50.928 7.5 52 3.1 100780 84
2005-02-21 09:07:41 51°18.349 2°50.926 7 50 3.1 100780 84
2005-02-21 09:07:45 51°18.355 2°50.926 7.6 43 3.1 100790 84
2005-02-21 09:07:50 51°18.364 2°50.926 7.7 39 3.1 100790 84
2005-02-21 09:07:55 51°18.371 2°50.927 7.1 35 3.1 100790 84
2005-02-21 09:08:01 51°18.377 2°50.929 6.5 34 3.1 100790 84
2005-02-21 09:08:05 51°18.383 2°50.932 7.2 29 3.1 100790 84
2005-02-21 09:08:10 51°18.388 2°50.936 6.6 22 3.1 100800 84
2005-02-21 09:08:15 51°18.393 2°50.939 7.2 17 3.1 100800 84
2005-02-21 09:08:21 51°18.397 2°50.943 6 17 3.1 100800 83
2005-02-21 09:08:26 51°18.401 2°50.948 6 18 3.1 100800 83
2005-02-21 09:08:30 51°18.404 2°50.951 7 19 3.1 100810 83
2005-02-21 09:08:35 51°18.407 2°50.956 6.8 22 3.1 100810 83
2005-02-21 09:08:41 51°18.411 2°50.961 6.9 33 3.1 100810 83
2005-02-21 09:08:45 51°18.414 2°50.964 5.9 29 3.1 100800 83
2005-02-21 09:08:50 51°18.417 2°50.968 6.3 37 3.1 100800 83
2005-02-21 09:08:55 51°18.42 2°50.972 5.8 29 3.1 100800 83
2005-02-21 09:09:01 51°18.423 2°50.978 5.5 27 3.1 100800 83
2005-02-21 09:09:05 51°18.425 2°50.979 6.6 31 3.2 100800 83
2005-02-21 09:09:10 51°18.427 2°50.984 6.7 22 3.2 100800 83
2005-02-21 09:09:15 51°18.429 2°50.986 6.7 40 3.2 100790 83
2005-02-21 09:09:21 51°18.432 2°50.99 7.1 41 3.2 100790 83
2005-02-21 09:09:25 51°18.434 2°50.991 6 45 3.2 100780 83
2005-02-21 09:09:30 51°18.437 2°50.994 6.1 39 3.2 100780 83
2005-02-21 09:09:35 51°18.44 2°50.996 6.1 40 3.2 100790 83
2005-02-21 09:09:41 51°18.444 2°51 6.7 39 3.2 100790 83
2005-02-21 09:09:45 51°18.448 2°51 6.6 33 3.2 100790 83
2005-02-21 09:09:50 51°18.452 2°51.002 6.7 41 3.2 100790 83
2005-02-21 09:09:56 51°18.458 2°51.003 6.7 40 3.2 100790 83
2005-02-21 09:10:01 51°18.462 2°51.004 5.8 51 3.2 100800 83
2005-02-21 09:10:05 51°18.464 2°51.005 6.3 40 3.2 100800 83
2005-02-21 09:10:10 51°18.468 2°51.005 5.6 41 3.2 100790 83
2005-02-21 09:10:14 51°18.469 2°51.005 4.4 53 3.2 100790 82
2005-02-21 09:10:21 51°18.473 2°51.005 4.7 -999 3.2 100790 82
2005-02-21 09:10:25 51°18.474 2°51.005 4.5 67 3.2 100800 82
2005-02-21 09:10:30 51°18.476 2°51.005 4.1 70 3.2 100800 82
2005-02-21 09:10:35 51°18.476 2°51.005 3 73 3.2 100800 82
2005-02-21 09:10:41 51°18.476 2°51.005 3.2 80 3.2 100800 82
2005-02-21 09:10:45 51°18.477 2°51.004 3.9 84 3.2 100800 82
2005-02-21 09:10:50 51°18.477 2°51.004 4.8 87 3.2 100800 82
2005-02-21 09:10:56 51°18.477 2°51.003 4.5 84 3.2 100800 82
2005-02-21 09:11:01 51°18.477 2°51.002 4.6 84 3.2 100790 82
2005-02-21 09:11:05 51°18.477 2°51.002 4.7 85 3.2 100800 82
2005-02-21 09:11:10 51°18.477 2°51.001 4.2 78 3.2 100800 82
2005-02-21 09:11:15 51°18.477 2°51.001 5.2 77 3.3 100790 83
2005-02-21 09:11:20 51°18.477 2°51 4.9 74 3.3 100790 83
2005-02-21 09:11:25 51°18.476 2°50.999 4.4 77 3.3 100800 83
2005-02-21 09:11:30 51°18.476 2°50.998 4.8 79 3.3 100800 83
2005-02-21 09:11:35 51°18.476 2°50.997 4.6 78 3.3 100810 83
2005-02-21 09:11:41 51°18.475 2°50.997 4.3 78 3.3 100810 83
2005-02-21 09:11:45 51°18.475 2°50.997 4.7 84 3.3 100800 83
2005-02-21 09:11:51 51°18.475 2°50.996 4.1 75 3.3 100800 83
2005-02-21 09:11:55 51°18.474 2°50.995 4.3 76 3.2 100800 83
2005-02-21 09:12:01 51°18.474 2°50.994 3.4 73 3.2 100800 83
2005-02-21 09:12:05 51°18.474 2°50.994 5 83 3.2 100810 83
2005-02-21 09:12:10 51°18.473 2°50.993 3.5 79 3.2 100810 83
2005-02-21 09:12:15 51°18.472 2°50.993 4.7 79 3.2 100800 83
2005-02-21 09:12:21 51°18.472 2°50.991 4.3 79 3.2 100800 83
2005-02-21 09:12:25 51°18.472 2°50.991 4.4 80 3.2 100800 83
2005-02-21 09:12:30 51°18.471 2°50.991 4.3 74 3.2 100800 83
2005-02-21 09:12:36 51°18.471 2°50.99 4.4 78 3.2 100800 83
2005-02-21 09:12:40 51°18.47 2°50.989 3.9 70 3.2 100800 83
2005-02-21 09:12:45 51°18.47 2°50.988 4 75 3.2 100800 83
2005-02-21 09:12:50 51°18.469 2°50.988 4 74 3.2 100810 83
2005-02-21 09:12:55 51°18.469 2°50.987 3.7 80 3.2 100810 83
2005-02-21 09:13:01 51°18.467 2°50.985 3.6 83 3.2 100810 83
2005-02-21 09:13:05 51°18.467 2°50.985 3.8 85 3.2 100800 83
2005-02-21 09:13:10 51°18.466 2°50.984 4.3 84 3.2 100800 83
2005-02-21 09:13:15 51°18.465 2°50.983 3.6 108 3.2 100800 83
2005-02-21 09:13:20 51°18.465 2°50.983 3.8 101 3.1 100810 82
2005-02-21 09:13:25 51°18.464 2°50.982 3.7 101 3.1 100810 82
2005-02-21 09:13:30 51°18.463 2°50.981 4.1 109 3.1 100810 82
2005-02-21 09:13:34 51°18.462 2°50.98 3.5 105 3.2 100810 82
2005-02-21 09:13:41 51°18.461 2°50.98 3.8 106 3.2 100810 82
2005-02-21 09:13:45 51°18.46 2°50.979 4.1 103 3.2 100810 83
2005-02-21 09:13:50 51°18.459 2°50.978 3.5 108 3.2 100810 83
2005-02-21 09:13:54 51°18.459 2°50.977 4.3 99 3.2 100810 83
2005-02-21 09:14:01 51°18.457 2°50.976 3.7 90 3.2 100810 83
2005-02-21 09:14:05 51°18.456 2°50.976 3.9 100 3.2 100800 83
2005-02-21 09:14:10 51°18.456 2°50.975 3.5 98 3.2 100800 83
2005-02-21 09:14:16 51°18.455 2°50.975 4.2 106 3.2 100800 83
2005-02-21 09:14:21 51°18.453 2°50.974 3.8 114 3.2 100800 83
2005-02-21 09:14:25 51°18.453 2°50.973 3.5 113 3.2 100800 83
2005-02-21 09:14:30 51°18.451 2°50.973 3.3 113 3.2 100800 83
2005-02-21 09:14:35 51°18.45 2°50.972 3.5 123 3.2 100800 83
2005-02-21 09:14:41 51°18.45 2°50.972 3.3 115 3.2 100800 83
2005-02-21 09:14:45 51°18.449 2°50.971 3.8 124 3.2 100800 83
2005-02-21 09:14:50 51°18.448 2°50.971 3.2 133 3.2 100810 83
2005-02-21 09:14:56 51°18.447 2°50.971 4.2 125 3.2 100810 83
2005-02-21 09:15:01 51°18.445 2°50.97 3.5 127 3.2 100810 83
2005-02-21 09:15:05 51°18.445 2°50.969 3.7 121 3.2 100810 83
2005-02-21 09:15:10 51°18.444 2°50.969 3.3 119 3.2 100800 83
2005-02-21 09:15:15 51°18.443 2°50.968 4.1 115 3.2 100810 83
2005-02-21 09:15:21 51°18.442 2°50.968 4.2 110 3.2 100810 83
2005-02-21 09:15:25 51°18.441 2°50.967 3.7 130 3.2 100810 83
2005-02-21 09:15:30 51°18.44 2°50.967 3.1 133 3.2 100810 83
2005-02-21 09:15:35 51°18.439 2°50.966 3 126 3.2 100800 83
2005-02-21 09:15:41 51°18.438 2°50.965 3.7 129 3.2 100800 83
2005-02-21 09:15:45 51°18.438 2°50.964 2.7 130 3.2 100800 83
2005-02-21 09:15:50 51°18.438 2°50.963 4.3 122 3.2 100800 83
2005-02-21 09:15:55 51°18.438 2°50.961 3.9 122 3.2 100800 83
2005-02-21 09:16:00 51°18.438 2°50.959 4.1 121 3.2 100800 83
2005-02-21 09:16:05 51°18.439 2°50.956 3.6 120 3.2 100800 83
2005-02-21 09:16:10 51°18.44 2°50.953 3.2 113 3.2 100800 83
2005-02-21 09:16:15 51°18.442 2°50.949 3.4 107 3.2 100800 83
2005-02-21 09:16:20 51°18.445 2°50.944 3 77 3.2 100800 83
2005-02-21 09:16:25 51°18.449 2°50.938 3.4 69 3.2 100800 83
2005-02-21 09:16:31 51°18.454 2°50.93 3.8 66 3.2 100800 83
2005-02-21 09:16:36 51°18.459 2°50.922 4.1 61 3.2 100780 83
2005-02-21 09:16:40 51°18.464 2°50.916 4.6 56 3.2 100780 83
2005-02-21 09:16:45 51°18.471 2°50.908 4.5 58 3.2 100780 83
2005-02-21 09:16:50 51°18.478 2°50.901 4.1 48 3.2 100780 83
2005-02-21 09:16:56 51°18.487 2°50.89 4.8 44 3.2 100780 83
2005-02-21 09:17:01 51°18.494 2°50.883 5.6 38 3.2 100780 83
2005-02-21 09:17:05 51°18.502 2°50.875 5.6 33 3.2 100790 83
2005-02-21 09:17:10 51°18.511 2°50.867 6.6 28 3.2 100790 83
2005-02-21 09:17:14 51°18.519 2°50.859 6.5 8 3.2 100790 83
2005-02-21 09:17:21 51°18.534 2°50.849 6.7 18 3.2 100790 83
2005-02-21 09:17:25 51°18.545 2°50.844 9.2 360 3.2 100790 83
2005-02-21 09:17:30 51°18.557 2°50.838 13.7 12 3.2 100790 83
2005-02-21 09:17:35 51°18.571 2°50.833 11.2 35 3.2 100780 83
2005-02-21 09:17:41 51°18.586 2°50.828 9.9 30 3.2 100780 83
2005-02-21 09:17:46 51°18.599 2°50.824 10.1 32 3.2 100780 83
2005-02-21 09:17:50 51°18.613 2°50.819 9.1 26 3.2 100780 84
2005-02-21 09:17:55 51°18.626 2°50.816 11.5 20 3.2 100780 84
2005-02-21 09:18:01 51°18.64 2°50.812 9.5 14 3.2 100770 84
2005-02-21 09:18:05 51°18.651 2°50.811 10.1 14 3.3 100750 84
2005-02-21 09:18:10 51°18.668 2°50.81 11.3 7 3.3 100750 84
2005-02-21 09:18:15 51°18.681 2°50.811 10.8 9 3.3 100760 84
2005-02-21 09:18:20 51°18.697 2°50.815 12.3 5 3.3 100760 84
2005-02-21 09:18:25 51°18.711 2°50.82 11.3 12 3.2 100770 84
2005-02-21 09:18:30 51°18.725 2°50.825 12.1 7 3.2 100770 84
2005-02-21 09:18:35 51°18.74 2°50.832 11.8 7 3.3 100770 85
2005-02-21 09:18:41 51°18.757 2°50.84 11.8 2 3.3 100770 85
2005-02-21 09:18:45 51°18.768 2°50.846 11.3 357 3.2 100800 85
2005-02-21 09:18:50 51°18.783 2°50.853 12.3 359 3.2 100800 85
2005-02-21 09:18:55 51°18.797 2°50.862 12.4 355 3.2 100770 85
2005-02-21 09:19:01 51°18.813 2°50.871 12.5 351 3.2 100770 85
2005-02-21 09:19:05 51°18.825 2°50.878 11.8 352 3.2 100770 85
2005-02-21 09:19:10 51°18.841 2°50.888 10.4 356 3.2 100770 85
2005-02-21 09:19:15 51°18.855 2°50.897 12.3 352 3.2 100770 85
2005-02-21 09:19:21 51°18.872 2°50.91 12 350 3.2 100770 85
2005-02-21 09:19:25 51°18.883 2°50.921 11.3 345 3.2 100760 85
2005-02-21 09:19:30 51°18.897 2°50.936 11.4 344 3.2 100760 85
2005-02-21 09:19:35 51°18.908 2°50.95 10.6 340 3.2 100760 85
2005-02-21 09:19:41 51°18.922 2°50.971 12.8 342 3.2 100770 85
2005-02-21 09:19:45 51°18.932 2°50.987 12.4 334 3.1 100750 85
2005-02-21 09:19:50 51°18.942 2°51.006 10.7 331 3.1 100750 85
2005-02-21 09:19:55 51°18.951 2°51.027 12.4 334 3.1 100750 85
2005-02-21 09:20:01 51°18.961 2°51.05 9.9 335 3.1 100750 85
2005-02-21 09:20:05 51°18.969 2°51.071 10.5 333 3.2 100750 86
2005-02-21 09:20:10 51°18.977 2°51.094 11.9 332 3.2 100750 86
2005-02-21 09:20:15 51°18.985 2°51.116 12.8 327 3.1 100750 86
2005-02-21 09:20:21 51°18.993 2°51.14 12.7 335 3.1 100750 86
2005-02-21 09:20:25 51°19.001 2°51.164 14 336 3.2 100760 86
2005-02-21 09:20:30 51°19.008 2°51.187 13 329 3.2 100760 86
2005-02-21 09:20:34 51°19.014 2°51.206 14.8 335 3.2 100760 86
2005-02-21 09:20:40 51°19.023 2°51.233 12.4 336 3.1 100750 86
2005-02-21 09:20:45 51°19.03 2°51.257 13.3 341 3.1 100750 86
2005-02-21 09:20:51 51°19.038 2°51.282 13.9 345 3.1 100750 86
2005-02-21 09:20:56 51°19.047 2°51.305 12.2 357 3.1 100750 86
2005-02-21 09:21:01 51°19.054 2°51.329 11.6 355 3.1 100740 86
2005-02-21 09:21:05 51°19.061 2°51.351 11.2 354 3.2 100740 86
2005-02-21 09:21:10 51°19.069 2°51.374 10.5 357 3.2 100740 86
2005-02-21 09:21:15 51°19.076 2°51.396 10.7 354 3.2 100740 86
2005-02-21 09:21:21 51°19.084 2°51.422 9.1 359 3.2 100740 86
2005-02-21 09:21:25 51°19.092 2°51.446 9.8 -999 3.2 100760 86
2005-02-21 09:21:30 51°19.099 2°51.47 9.5 356 3.2 100760 86
2005-02-21 09:21:34 51°19.105 2°51.489 9.8 359 3.2 100760 86
2005-02-21 09:21:41 51°19.115 2°51.519 11.2 352 3.2 100760 86
2005-02-21 09:21:45 51°19.122 2°51.541 11.3 349 3.2 100770 86
2005-02-21 09:21:50 51°19.13 2°51.565 10 346 3.2 100770 86
2005-02-21 09:21:56 51°19.138 2°51.588 9.9 345 3.2 100770 86
2005-02-21 09:22:01 51°19.147 2°51.614 10.4 343 3.2 100760 86
2005-02-21 09:22:05 51°19.153 2°51.637 9.2 353 3.3 100770 86
2005-02-21 09:22:10 51°19.16 2°51.662 9.3 353 3.3 100770 86
2005-02-21 09:22:15 51°19.167 2°51.687 10.3 351 3.3 100770 86
2005-02-21 09:22:21 51°19.173 2°51.715 10.5 349 3.3 100760 85
2005-02-21 09:22:25 51°19.178 2°51.737 10 348 3.3 100760 85
2005-02-21 09:22:30 51°19.183 2°51.763 11.6 346 3.3 100760 85
2005-02-21 09:22:35 51°19.188 2°51.787 10.1 346 3.3 100770 85
2005-02-21 09:22:40 51°19.194 2°51.815 11.2 344 3.3 100770 85
2005-02-21 09:22:45 51°19.198 2°51.84 9.3 351 3.3 100760 85
2005-02-21 09:22:51 51°19.205 2°51.869 9.5 352 3.3 100760 85
2005-02-21 09:22:56 51°19.209 2°51.894 10.9 358 3.3 100760 85
2005-02-21 09:23:00 51°19.215 2°51.918 11.3 348 3.3 100760 85
2005-02-21 09:23:05 51°19.22 2°51.944 11.4 354 3.3 100760 85
2005-02-21 09:23:10 51°19.226 2°51.969 10.6 352 3.3 100760 85
2005-02-21 09:23:15 51°19.23 2°51.993 10.5 349 3.3 100770 84
2005-02-21 09:23:20 51°19.235 2°52.02 10.8 356 3.3 100770 84
2005-02-21 09:23:25 51°19.24 2°52.046 10.9 349 3.4 100770 84
2005-02-21 09:23:30 51°19.245 2°52.072 12.3 349 3.4 100770 84
2005-02-21 09:23:36 51°19.25 2°52.097 11.6 348 3.4 100760 84
2005-02-21 09:23:41 51°19.254 2°52.124 10.2 352 3.4 100760 84
2005-02-21 09:23:45 51°19.259 2°52.147 10.2 353 3.4 100770 84
2005-02-21 09:23:50 51°19.263 2°52.173 11 -999 3.4 100770 84
2005-02-21 09:23:56 51°19.269 2°52.2 9.7 356 3.4 100760 83
2005-02-21 09:24:01 51°19.274 2°52.226 11.2 353 3.4 100760 83
2005-02-21 09:24:05 51°19.279 2°52.248 10.5 1 3.4 100760 83
2005-02-21 09:24:10 51°19.284 2°52.274 10.1 359 3.4 100760 83
2005-02-21 09:24:14 51°19.288 2°52.294 11.3 357 3.4 100770 83
2005-02-21 09:24:21 51°19.294 2°52.327 12.8 -999 3.4 100770 83
2005-02-21 09:24:26 51°19.299 2°52.351 11.4 358 3.5 100770 83
2005-02-21 09:24:30 51°19.303 2°52.375 12.3 2 3.5 100770 83
2005-02-21 09:24:36 51°19.308 2°52.401 11.9 359 3.5 100770 83
2005-02-21 09:24:41 51°19.312 2°52.428 11.1 358 3.4 100770 83
2005-02-21 09:24:45 51°19.317 2°52.452 10.6 360 3.4 100770 83
2005-02-21 09:24:51 51°19.322 2°52.479 10.8 359 3.4 100770 83
2005-02-21 09:24:56 51°19.326 2°52.502 10.5 2 3.4 100770 83
2005-02-21 09:25:01 51°19.332 2°52.53 12.4 358 3.4 100770 83
2005-02-21 09:25:05 51°19.335 2°52.551 11.6 1 3.4 100770 83
2005-02-21 09:25:10 51°19.34 2°52.579 11 357 3.4 100770 83
2005-02-21 09:25:16 51°19.345 2°52.604 10.4 2 3.4 100770 82
2005-02-21 09:25:21 51°19.351 2°52.631 10.6 356 3.4 100770 82
2005-02-21 09:25:25 51°19.352 2°52.653 11.2 357 3.4 100760 82
2005-02-21 09:25:30 51°19.358 2°52.681 10.5 353 3.4 100760 82
2005-02-21 09:25:36 51°19.362 2°52.706 10.4 4 3.3 100760 82
2005-02-21 09:25:41 51°19.367 2°52.734 10.5 358 3.3 100760 82
2005-02-21 09:25:45 51°19.37 2°52.755 10.8 1 3.3 100760 82
2005-02-21 09:25:50 51°19.376 2°52.783 10.9 358 3.3 100770 82
2005-02-21 09:25:56 51°19.38 2°52.812 10.7 359 3.3 100760 82
2005-02-21 09:26:01 51°19.385 2°52.836 10.1 1 3.3 100760 82
2005-02-21 09:26:05 51°19.389 2°52.859 10.3 358 3.3 100770 82
2005-02-21 09:26:10 51°19.394 2°52.884 10 1 3.3 100770 82
2005-02-21 09:26:14 51°19.397 2°52.905 10.2 354 3.3 100770 82
2005-02-21 09:26:21 51°19.404 2°52.939 10.5 3 3.3 100770 82
2005-02-21 09:26:25 51°19.408 2°52.961 10.3 353 3.3 100770 83
2005-02-21 09:26:30 51°19.413 2°52.988 10.3 354 3.3 100770 83
2005-02-21 09:26:36 51°19.417 2°53.013 10.4 354 3.3 100770 83
2005-02-21 09:26:41 51°19.422 2°53.04 10.1 356 3.3 100770 83
2005-02-21 09:26:45 51°19.427 2°53.064 10.6 355 3.3 100770 83
2005-02-21 09:26:50 51°19.432 2°53.089 10 354 3.3 100770 83
2005-02-21 09:26:56 51°19.437 2°53.117 10.6 351 3.3 100770 83
2005-02-21 09:27:00 51°19.441 2°53.141 10.1 352 3.3 100770 83
2005-02-21 09:27:05 51°19.446 2°53.166 10.7 351 3.3 100760 83
2005-02-21 09:27:10 51°19.45 2°53.192 10.9 351 3.3 100760 83
2005-02-21 09:27:15 51°19.455 2°53.216 10 349 3.3 100770 83
2005-02-21 09:27:20 51°19.459 2°53.244 9.5 351 3.3 100770 83
2005-02-21 09:27:25 51°19.463 2°53.269 9.3 358 3.3 100760 83
2005-02-21 09:27:30 51°19.468 2°53.295 9.2 356 3.3 100760 83
2005-02-21 09:27:36 51°19.473 2°53.321 9.9 356 3.3 100760 83
2005-02-21 09:27:41 51°19.478 2°53.349 9.2 355 3.3 100760 83
2005-02-21 09:27:45 51°19.482 2°53.372 9.6 353 3.3 100760 83
2005-02-21 09:27:51 51°19.488 2°53.402 9.9 353 3.3 100760 83
2005-02-21 09:27:56 51°19.492 2°53.426 10.2 352 3.3 100770 83
2005-02-21 09:28:00 51°19.496 2°53.45 10.7 348 3.3 100770 83
2005-02-21 09:28:05 51°19.501 2°53.476 10 352 3.3 100770 83
2005-02-21 09:28:10 51°19.506 2°53.502 8.9 351 3.3 100770 83
2005-02-21 09:28:16 51°19.511 2°53.528 9.8 353 3.3 100760 83
2005-02-21 09:28:21 51°19.516 2°53.556 9.9 351 3.3 100760 83
2005-02-21 09:28:25 51°19.52 2°53.579 10.4 346 3.3 100760 83
2005-02-21 09:28:30 51°19.525 2°53.604 10.5 348 3.3 100760 83
2005-02-21 09:28:36 51°19.53 2°53.63 10.1 348 3.3 100760 83
2005-02-21 09:28:41 51°19.535 2°53.658 10.3 349 3.3 100760 83
2005-02-21 09:28:45 51°19.538 2°53.679 10.8 352 3.3 100760 83
2005-02-21 09:28:50 51°19.544 2°53.707 11.1 349 3.3 100760 83
2005-02-21 09:28:56 51°19.548 2°53.733 10.3 356 3.3 100760 83
2005-02-21 09:29:01 51°19.554 2°53.761 11.5 354 3.3 100760 83
2005-02-21 09:29:05 51°19.558 2°53.784 11 354 3.3 100760 83
2005-02-21 09:29:10 51°19.563 2°53.809 10.7 354 3.3 100760 83
2005-02-21 09:29:16 51°19.567 2°53.837 10.7 359 3.3 100760 83
2005-02-21 09:29:21 51°19.572 2°53.863 11.6 354 3.4 100760 83
2005-02-21 09:29:25 51°19.576 2°53.886 10.9 353 3.4 100760 83
2005-02-21 09:29:30 51°19.581 2°53.913 11.2 353 3.4 100760 83
2005-02-21 09:29:34 51°19.584 2°53.933 11.1 351 3.4 100760 83
2005-02-21 09:29:40 51°19.588 2°53.964 12.1 349 3.4 100760 83
2005-02-21 09:29:45 51°19.592 2°53.988 12.1 351 3.4 100760 83
2005-02-21 09:29:50 51°19.596 2°54.015 11.7 352 3.4 100770 83
2005-02-21 09:29:55 51°19.601 2°54.039 12 349 3.4 100760 83
2005-02-21 09:30:00 51°19.604 2°54.066 12.7 353 3.4 100760 83
2005-02-21 09:30:05 51°19.609 2°54.092 12.2 348 3.4 100760 83
2005-02-21 09:30:10 51°19.612 2°54.119 12.5 349 3.4 100760 83
2005-02-21 09:30:15 51°19.616 2°54.143 12.3 352 3.4 100760 84
2005-02-21 09:30:21 51°19.621 2°54.173 13.3 355 3.4 100760 84
2005-02-21 09:30:25 51°19.625 2°54.196 11.3 350 3.4 100760 84
2005-02-21 09:30:30 51°19.628 2°54.222 12 347 3.4 100760 84
2005-02-21 09:30:35 51°19.633 2°54.245 12.8 353 3.4 100750 83
2005-02-21 09:30:40 51°19.637 2°54.274 12.2 351 3.4 100750 83
2005-02-21 09:30:45 51°19.641 2°54.3 11.9 357 3.4 100750 83
2005-02-21 09:30:50 51°19.645 2°54.326 12.7 351 3.4 100750 83
2005-02-21 09:30:55 51°19.649 2°54.35 12.4 354 3.4 100750 83
2005-02-21 09:31:01 51°19.655 2°54.381 12.7 348 3.4 100750 84
2005-02-21 09:31:05 51°19.658 2°54.404 12.4 350 3.4 100750 84
2005-02-21 09:31:11 51°19.663 2°54.433 12.1 346 3.4 100750 84
2005-02-21 09:31:15 51°19.666 2°54.453 11.5 355 3.4 100750 84
2005-02-21 09:31:21 51°19.671 2°54.485 12.6 346 3.4 100750 84
2005-02-21 09:31:25 51°19.674 2°54.508 12.4 347 3.4 100750 84
2005-02-21 09:31:30 51°19.678 2°54.535 12.4 350 3.4 100750 84
2005-02-21 09:31:36 51°19.682 2°54.56 12 348 3.4 100750 84
2005-02-21 09:31:41 51°19.686 2°54.588 11.1 348 3.4 100750 84
2005-02-21 09:31:45 51°19.689 2°54.608 11.3 350 3.4 100750 84
2005-02-21 09:31:50 51°19.693 2°54.638 12.1 348 3.4 100750 84
2005-02-21 09:31:56 51°19.697 2°54.663 11.3 351 3.4 100750 84
2005-02-21 09:32:00 51°19.701 2°54.689 11.7 351 3.4 100750 84
2005-02-21 09:32:05 51°19.705 2°54.715 11.7 354 3.4 100750 84
2005-02-21 09:32:10 51°19.709 2°54.741 11.4 349 3.4 100750 84
2005-02-21 09:32:15 51°19.713 2°54.764 11.1 353 3.4 100740 84
2005-02-21 09:32:21 51°19.718 2°54.794 11.6 353 3.4 100740 84
2005-02-21 09:32:25 51°19.72 2°54.818 10.6 356 3.4 100740 84
2005-02-21 09:32:30 51°19.725 2°54.844 12.3 354 3.4 100760 84
2005-02-21 09:32:35 51°19.729 2°54.87 12.1 353 3.4 100760 84
2005-02-21 09:32:41 51°19.734 2°54.897 12.5 347 3.4 100760 84
2005-02-21 09:32:45 51°19.737 2°54.921 10.4 354 3.4 100750 84
2005-02-21 09:32:50 51°19.742 2°54.946 12.5 354 3.4 100750 84
2005-02-21 09:32:55 51°19.745 2°54.972 10.9 357 3.4 100760 84
2005-02-21 09:33:01 51°19.75 2°55.001 11 353 3.4 100760 84
2005-02-21 09:33:05 51°19.753 2°55.024 11.1 348 3.4 100750 84
2005-02-21 09:33:10 51°19.758 2°55.049 10.1 352 3.4 100750 84
2005-02-21 09:33:15 51°19.761 2°55.075 11.4 352 3.4 100760 84
2005-02-21 09:33:20 51°19.765 2°55.101 11.4 354 3.4 100760 84
2005-02-21 09:33:25 51°19.769 2°55.124 10.9 350 3.4 100750 84
2005-02-21 09:33:30 51°19.773 2°55.153 10.2 356 3.4 100750 84
2005-02-21 09:33:36 51°19.778 2°55.181 10.3 347 3.4 100750 84
2005-02-21 09:33:41 51°19.781 2°55.207 10.5 357 3.4 100760 83
2005-02-21 09:33:45 51°19.786 2°55.231 10.8 355 3.4 100760 84
2005-02-21 09:33:50 51°19.789 2°55.257 11.7 356 3.4 100760 84
2005-02-21 09:33:54 51°19.793 2°55.277 11.2 3 3.4 100760 84
2005-02-21 09:34:00 51°19.797 2°55.309 10.3 357 3.4 100760 84
2005-02-21 09:34:05 51°19.802 2°55.335 11.2 2 3.4 100750 84
2005-02-21 09:34:10 51°19.806 2°55.36 10.5 3 3.4 100750 84
2005-02-21 09:34:15 51°19.81 2°55.387 11.4 355 3.4 100760 84
2005-02-21 09:34:20 51°19.813 2°55.413 10.7 355 3.4 100760 84
2005-02-21 09:34:25 51°19.818 2°55.439 9.8 360 3.4 100750 84
2005-02-21 09:34:31 51°19.823 2°55.469 11.3 357 3.4 100750 84
2005-02-21 09:34:35 51°19.826 2°55.489 11.3 356 3.4 100760 84
2005-02-21 09:34:41 51°19.831 2°55.52 10.5 358 3.4 100760 84
2005-02-21 09:34:45 51°19.834 2°55.541 10.5 357 3.4 100750 84
2005-02-21 09:34:50 51°19.839 2°55.569 10.7 2 3.4 100750 84
2005-02-21 09:34:54 51°19.841 2°55.59 10.6 4 3.4 100760 83
2005-02-21 09:35:01 51°19.846 2°55.625 10.8 359 3.4 100760 83
2005-02-21 09:35:05 51°19.849 2°55.645 10.2 1 3.4 100760 83
2005-02-21 09:35:10 51°19.855 2°55.674 9.9 359 3.4 100760 83
2005-02-21 09:35:14 51°19.857 2°55.695 10 358 3.4 100760 83
2005-02-21 09:35:21 51°19.863 2°55.729 10.5 1 3.4 100760 83
2005-02-21 09:35:25 51°19.866 2°55.753 11.1 359 3.4 100760 83
2005-02-21 09:35:30 51°19.87 2°55.779 11.3 357 3.4 100760 83
2005-02-21 09:35:34 51°19.874 2°55.799 11 358 3.4 100760 83
2005-02-21 09:35:41 51°19.878 2°55.833 11.8 360 3.4 100760 83
2005-02-21 09:35:45 51°19.881 2°55.854 11.3 359 3.4 100760 84
2005-02-21 09:35:50 51°19.887 2°55.883 10.9 355 3.4 100760 84
2005-02-21 09:35:55 51°19.89 2°55.909 12.5 353 3.4 100750 84
2005-02-21 09:36:01 51°19.895 2°55.938 11.6 358 3.4 100750 84
2005-02-21 09:36:05 51°19.898 2°55.958 12.4 352 3.4 100760 84
2005-02-21 09:36:11 51°19.903 2°55.99 11.3 354 3.4 100760 84
2005-02-21 09:36:14 51°19.905 2°56.008 11.9 358 3.4 100750 84
2005-02-21 09:36:21 51°19.91 2°56.042 9.7 5 3.4 100750 84
2005-02-21 09:36:25 51°19.915 2°56.064 10.9 351 3.4 100750 84
2005-02-21 09:36:30 51°19.919 2°56.091 10.9 351 3.4 100750 84
2005-02-21 09:36:35 51°19.922 2°56.117 10.3 1 3.4 100750 83
2005-02-21 09:36:41 51°19.926 2°56.145 11.2 4 3.4 100750 83
2005-02-21 09:36:45 51°19.929 2°56.166 10.9 4 3.4 100750 83
2005-02-21 09:36:50 51°19.935 2°56.195 11 7 3.4 100750 83
2005-02-21 09:36:54 51°19.938 2°56.216 10.8 3 3.4 100750 83
2005-02-21 09:37:01 51°19.944 2°56.249 10.3 4 3.4 100750 83
2005-02-21 09:37:05 51°19.948 2°56.273 11.1 356 3.4 100750 83
2005-02-21 09:37:10 51°19.951 2°56.3 10.8 357 3.4 100750 83
2005-02-21 09:37:15 51°19.955 2°56.324 10.9 2 3.4 100760 83
2005-02-21 09:37:21 51°19.96 2°56.355 10.5 1 3.4 100760 83
2005-02-21 09:37:25 51°19.964 2°56.378 10.4 359 3.4 100760 83
2005-02-21 09:37:30 51°19.968 2°56.404 11.3 360 3.4 100760 83
2005-02-21 09:37:36 51°19.973 2°56.433 11.1 1 3.4 100760 83
2005-02-21 09:37:41 51°19.977 2°56.458 11.8 -999 3.4 100760 83
2005-02-21 09:37:45 51°19.98 2°56.482 10.7 359 3.5 100760 84
2005-02-21 09:37:50 51°19.985 2°56.509 11.4 358 3.5 100760 84
2005-02-21 09:37:55 51°19.989 2°56.535 11.6 354 3.4 100760 83
2005-02-21 09:38:01 51°19.994 2°56.563 10 355 3.4 100760 83
2005-02-21 09:38:05 51°19.997 2°56.587 11.1 356 3.4 100750 83
2005-02-21 09:38:10 51°20.001 2°56.613 11.4 359 3.4 100750 83
2005-02-21 09:38:15 51°20.006 2°56.64 12.3 352 3.4 100750 83
2005-02-21 09:38:21 51°20.01 2°56.668 13 353 3.4 100750 83
2005-02-21 09:38:25 51°20.014 2°56.689 12.6 349 3.4 100750 83
2005-02-21 09:38:31 51°20.018 2°56.723 11.1 352 3.4 100750 83
2005-02-21 09:38:34 51°20.021 2°56.739 12.2 344 3.4 100750 83
2005-02-21 09:38:41 51°20.026 2°56.774 11.8 351 3.4 100750 83
2005-02-21 09:38:45 51°20.03 2°56.797 10.9 346 3.4 100750 83
2005-02-21 09:38:50 51°20.034 2°56.824 14 347 3.4 100750 83
2005-02-21 09:38:55 51°20.039 2°56.849 12.2 355 3.4 100750 83
2005-02-21 09:39:00 51°20.042 2°56.876 12.1 352 3.4 100750 83
2005-02-21 09:39:05 51°20.047 2°56.902 12.2 358 3.5 100750 83
2005-02-21 09:39:10 51°20.051 2°56.928 11.6 353 3.5 100750 83
2005-02-21 09:39:15 51°20.054 2°56.952 10.7 357 3.5 100740 83
2005-02-21 09:39:21 51°20.059 2°56.983 11.2 348 3.5 100740 83
2005-02-21 09:39:25 51°20.062 2°57.007 10.5 353 3.5 100750 83
2005-02-21 09:39:31 51°20.067 2°57.038 12.9 349 3.5 100750 83
2005-02-21 09:39:35 51°20.07 2°57.06 12.6 350 3.5 100750 83
2005-02-21 09:39:41 51°20.077 2°57.092 11.5 344 3.5 100750 83
2005-02-21 09:39:45 51°20.079 2°57.114 11.3 349 3.5 100750 83
2005-02-21 09:39:50 51°20.084 2°57.146 12.6 347 3.5 100750 83
2005-02-21 09:39:55 51°20.089 2°57.171 12.4 346 3.5 100740 83
2005-02-21 09:40:01 51°20.094 2°57.206 12.7 349 3.5 100740 83
2005-02-21 09:40:05 51°20.098 2°57.233 14 353 3.5 100720 83
2005-02-21 09:40:10 51°20.103 2°57.262 13.1 345 3.5 100720 83
2005-02-21 09:40:16 51°20.107 2°57.294 13.4 348 3.5 100720 83
2005-02-21 09:40:21 51°20.113 2°57.324 14.4 344 3.5 100720 83
2005-02-21 09:40:25 51°20.116 2°57.351 13.7 349 3.5 100730 83
2005-02-21 09:40:30 51°20.121 2°57.38 14.7 345 3.5 100730 83
2005-02-21 09:40:35 51°20.124 2°57.408 15.3 345 3.5 100730 82
2005-02-21 09:40:41 51°20.13 2°57.441 13.6 350 3.5 100730 82
2005-02-21 09:40:45 51°20.133 2°57.469 14.7 349 3.5 100720 82
2005-02-21 09:40:50 51°20.139 2°57.498 13.3 351 3.5 100720 82
2005-02-21 09:40:54 51°20.142 2°57.522 13.5 347 3.5 100720 81
2005-02-21 09:41:01 51°20.149 2°57.559 12.7 347 3.5 100720 81
2005-02-21 09:41:05 51°20.153 2°57.587 14.3 349 3.5 100720 81
2005-02-21 09:41:10 51°20.158 2°57.616 13.8 353 3.5 100720 81
2005-02-21 09:41:15 51°20.162 2°57.646 14.1 351 3.5 100720 80
2005-02-21 09:41:21 51°20.167 2°57.678 14.4 343 3.5 100720 80
2005-02-21 09:41:25 51°20.172 2°57.705 13.5 347 3.5 100720 80
2005-02-21 09:41:30 51°20.177 2°57.735 14 341 3.5 100720 80
2005-02-21 09:41:35 51°20.181 2°57.765 13.2 350 3.6 100720 80
2005-02-21 09:41:41 51°20.188 2°57.797 13.6 345 3.6 100720 80
2005-02-21 09:41:45 51°20.191 2°57.824 13.4 345 3.6 100720 80
2005-02-21 09:41:50 51°20.196 2°57.854 14.2 347 3.6 100720 80
2005-02-21 09:41:55 51°20.201 2°57.884 14.2 343 3.6 100720 79
2005-02-21 09:42:01 51°20.205 2°57.917 12.5 351 3.6 100720 79
2005-02-21 09:42:05 51°20.21 2°57.944 13.5 347 3.6 100720 79
2005-02-21 09:42:10 51°20.214 2°57.974 14.9 351 3.6 100720 79
2005-02-21 09:42:15 51°20.22 2°58.004 14.5 345 3.6 100710 79
2005-02-21 09:42:21 51°20.224 2°58.037 14.3 349 3.6 100710 79
2005-02-21 09:42:25 51°20.229 2°58.06 13.5 344 3.6 100720 79
2005-02-21 09:42:30 51°20.233 2°58.094 13 343 3.6 100720 79
2005-02-21 09:42:35 51°20.238 2°58.124 13 338 3.6 100720 79
2005-02-21 09:42:41 51°20.243 2°58.157 13.7 342 3.6 100720 79
2005-02-21 09:42:45 51°20.248 2°58.184 12.2 344 3.6 100750 78
2005-02-21 09:42:50 51°20.253 2°58.214 13.7 339 3.6 100750 78
2005-02-21 09:42:54 51°20.256 2°58.238 12.6 342 3.6 100710 78
2005-02-21 09:43:01 51°20.262 2°58.277 13.1 343 3.6 100710 78